sensor_id;sensor_type;location;lat;lon;timestamp;P1;durP1;ratioP1;P2;durP2;ratioP2
10801;SDS011;5453;50.852;7.102;2023-05-16T00:00:51;4.43;;;2.40;;
10801;SDS011;5453;50.852;7.102;2023-05-16T00:03:23;5.00;;;2.20;;
10801;SDS011;5453;50.852;7.102;2023-05-16T00:05:57;4.88;;;2.15;;
10801;SDS011;5453;50.852;7.102;2023-05-16T00:08:31;4.63;;;2.42;;
10801;SDS011;5453;50.852;7.102;2023-05-16T00:11:03;5.18;;;2.67;;
10801;SDS011;5453;50.852;7.102;2023-05-16T00:13:35;3.42;;;1.83;;
10801;SDS011;5453;50.852;7.102;2023-05-16T00:16:08;6.05;;;2.28;;
10801;SDS011;5453;50.852;7.102;2023-05-16T00:18:40;4.72;;;1.98;;
10801;SDS011;5453;50.852;7.102;2023-05-16T00:21:16;6.80;;;2.00;;
10801;SDS011;5453;50.852;7.102;2023-05-16T00:23:48;5.35;;;2.03;;
10801;SDS011;5453;50.852;7.102;2023-05-16T00:26:20;4.38;;;2.33;;
10801;SDS011;5453;50.852;7.102;2023-05-16T00:28:52;3.60;;;2.10;;
10801;SDS011;5453;50.852;7.102;2023-05-16T00:31:24;4.20;;;1.83;;
10801;SDS011;5453;50.852;7.102;2023-05-16T00:33:56;4.07;;;1.95;;
10801;SDS011;5453;50.852;7.102;2023-05-16T00:36:30;2.97;;;1.77;;
10801;SDS011;5453;50.852;7.102;2023-05-16T00:39:05;2.47;;;1.55;;
10801;SDS011;5453;50.852;7.102;2023-05-16T00:41:37;2.92;;;1.65;;
10801;SDS011;5453;50.852;7.102;2023-05-16T00:44:10;3.58;;;1.60;;
10801;SDS011;5453;50.852;7.102;2023-05-16T00:46:42;3.65;;;1.98;;
10801;SDS011;5453;50.852;7.102;2023-05-16T00:49:16;5.13;;;2.03;;
10801;SDS011;5453;50.852;7.102;2023-05-16T00:51:49;3.17;;;1.83;;
10801;SDS011;5453;50.852;7.102;2023-05-16T00:54:22;3.42;;;1.83;;
10801;SDS011;5453;50.852;7.102;2023-05-16T00:56:58;4.15;;;2.40;;
10801;SDS011;5453;50.852;7.102;2023-05-16T00:59:32;7.05;;;2.53;;
10801;SDS011;5453;50.852;7.102;2023-05-16T01:02:05;3.33;;;2.03;;
10801;SDS011;5453;50.852;7.102;2023-05-16T01:04:37;4.38;;;2.22;;
10801;SDS011;5453;50.852;7.102;2023-05-16T01:07:13;4.20;;;2.38;;
10801;SDS011;5453;50.852;7.102;2023-05-16T01:09:47;2.95;;;1.90;;
10801;SDS011;5453;50.852;7.102;2023-05-16T01:12:20;5.78;;;2.83;;
10801;SDS011;5453;50.852;7.102;2023-05-16T01:15:01;5.93;;;2.92;;
10801;SDS011;5453;50.852;7.102;2023-05-16T01:17:43;4.95;;;3.05;;
10801;SDS011;5453;50.852;7.102;2023-05-16T01:20:30;6.55;;;3.53;;
10801;SDS011;5453;50.852;7.102;2023-05-16T01:23:16;6.15;;;3.25;;
10801;SDS011;5453;50.852;7.102;2023-05-16T01:26:09;6.68;;;3.63;;
10801;SDS011;5453;50.852;7.102;2023-05-16T01:28:49;8.63;;;4.00;;
10801;SDS011;5453;50.852;7.102;2023-05-16T01:31:22;7.88;;;4.50;;
10801;SDS011;5453;50.852;7.102;2023-05-16T01:33:55;7.45;;;4.30;;
10801;SDS011;5453;50.852;7.102;2023-05-16T01:36:29;9.40;;;4.57;;
10801;SDS011;5453;50.852;7.102;2023-05-16T01:41:49;6.90;;;3.60;;
10801;SDS011;5453;50.852;7.102;2023-05-16T01:44:28;7.65;;;3.13;;
10801;SDS011;5453;50.852;7.102;2023-05-16T01:47:09;6.53;;;3.10;;
10801;SDS011;5453;50.852;7.102;2023-05-16T01:49:45;5.25;;;2.63;;
10801;SDS011;5453;50.852;7.102;2023-05-16T01:52:27;5.63;;;2.53;;
10801;SDS011;5453;50.852;7.102;2023-05-16T01:55:06;4.82;;;2.47;;
10801;SDS011;5453;50.852;7.102;2023-05-16T01:57:47;4.05;;;2.22;;
10801;SDS011;5453;50.852;7.102;2023-05-16T02:00:20;5.53;;;2.50;;
10801;SDS011;5453;50.852;7.102;2023-05-16T02:02:53;5.38;;;2.80;;
10801;SDS011;5453;50.852;7.102;2023-05-16T02:05:26;10.07;;;3.88;;
10801;SDS011;5453;50.852;7.102;2023-05-16T02:07:59;7.85;;;3.72;;
10801;SDS011;5453;50.852;7.102;2023-05-16T02:10:32;7.97;;;3.90;;
10801;SDS011;5453;50.852;7.102;2023-05-16T02:13:05;8.30;;;4.22;;
10801;SDS011;5453;50.852;7.102;2023-05-16T02:15:38;9.82;;;4.63;;
10801;SDS011;5453;50.852;7.102;2023-05-16T02:18:12;9.77;;;4.35;;
10801;SDS011;5453;50.852;7.102;2023-05-16T02:20:46;8.52;;;3.97;;
10801;SDS011;5453;50.852;7.102;2023-05-16T02:23:19;8.63;;;4.38;;
10801;SDS011;5453;50.852;7.102;2023-05-16T02:25:51;12.75;;;4.82;;
10801;SDS011;5453;50.852;7.102;2023-05-16T02:28:27;12.30;;;5.97;;
10801;SDS011;5453;50.852;7.102;2023-05-16T02:31:00;11.43;;;4.97;;
10801;SDS011;5453;50.852;7.102;2023-05-16T02:33:32;9.52;;;4.78;;
10801;SDS011;5453;50.852;7.102;2023-05-16T02:36:05;9.07;;;4.68;;
10801;SDS011;5453;50.852;7.102;2023-05-16T02:38:38;6.50;;;3.50;;
10801;SDS011;5453;50.852;7.102;2023-05-16T02:41:10;10.18;;;4.28;;
10801;SDS011;5453;50.852;7.102;2023-05-16T02:43:45;7.07;;;3.53;;
10801;SDS011;5453;50.852;7.102;2023-05-16T02:46:21;6.20;;;3.10;;
10801;SDS011;5453;50.852;7.102;2023-05-16T02:48:55;5.82;;;3.30;;
10801;SDS011;5453;50.852;7.102;2023-05-16T02:51:28;6.82;;;3.25;;
10801;SDS011;5453;50.852;7.102;2023-05-16T02:54:00;8.85;;;3.65;;
10801;SDS011;5453;50.852;7.102;2023-05-16T02:56:33;6.82;;;3.28;;
10801;SDS011;5453;50.852;7.102;2023-05-16T02:59:07;5.13;;;2.35;;
10801;SDS011;5453;50.852;7.102;2023-05-16T03:01:39;5.32;;;2.45;;
10801;SDS011;5453;50.852;7.102;2023-05-16T03:04:12;5.80;;;2.88;;
10801;SDS011;5453;50.852;7.102;2023-05-16T03:06:44;4.95;;;2.20;;
10801;SDS011;5453;50.852;7.102;2023-05-16T03:09:16;6.78;;;2.85;;
10801;SDS011;5453;50.852;7.102;2023-05-16T03:11:49;6.05;;;2.65;;
10801;SDS011;5453;50.852;7.102;2023-05-16T03:14:24;5.40;;;2.45;;
10801;SDS011;5453;50.852;7.102;2023-05-16T03:16:58;9.18;;;2.70;;
10801;SDS011;5453;50.852;7.102;2023-05-16T03:19:30;7.78;;;2.63;;
10801;SDS011;5453;50.852;7.102;2023-05-16T03:22:03;6.80;;;2.47;;
10801;SDS011;5453;50.852;7.102;2023-05-16T03:24:37;7.20;;;2.63;;
10801;SDS011;5453;50.852;7.102;2023-05-16T03:27:09;4.90;;;2.10;;
10801;SDS011;5453;50.852;7.102;2023-05-16T03:29:43;6.50;;;2.38;;
10801;SDS011;5453;50.852;7.102;2023-05-16T03:32:16;10.63;;;3.15;;
10801;SDS011;5453;50.852;7.102;2023-05-16T03:34:49;9.38;;;3.10;;
10801;SDS011;5453;50.852;7.102;2023-05-16T03:37:21;6.68;;;3.17;;
10801;SDS011;5453;50.852;7.102;2023-05-16T03:39:53;5.30;;;2.33;;
10801;SDS011;5453;50.852;7.102;2023-05-16T03:42:25;7.53;;;2.72;;
10801;SDS011;5453;50.852;7.102;2023-05-16T03:44:58;6.72;;;2.40;;
10801;SDS011;5453;50.852;7.102;2023-05-16T03:47:30;4.85;;;2.30;;
10801;SDS011;5453;50.852;7.102;2023-05-16T03:50:03;4.60;;;2.42;;
10801;SDS011;5453;50.852;7.102;2023-05-16T03:52:37;4.22;;;2.67;;
10801;SDS011;5453;50.852;7.102;2023-05-16T03:55:09;5.65;;;2.40;;
10801;SDS011;5453;50.852;7.102;2023-05-16T03:57:44;8.35;;;3.33;;
10801;SDS011;5453;50.852;7.102;2023-05-16T04:02:52;6.05;;;2.47;;
10801;SDS011;5453;50.852;7.102;2023-05-16T04:05:24;5.05;;;2.13;;
10801;SDS011;5453;50.852;7.102;2023-05-16T04:07:56;8.60;;;2.90;;
10801;SDS011;5453;50.852;7.102;2023-05-16T04:10:28;10.40;;;2.88;;
10801;SDS011;5453;50.852;7.102;2023-05-16T04:13:01;4.80;;;2.45;;
10801;SDS011;5453;50.852;7.102;2023-05-16T04:15:34;11.07;;;3.17;;
10801;SDS011;5453;50.852;7.102;2023-05-16T04:18:07;4.30;;;2.47;;
10801;SDS011;5453;50.852;7.102;2023-05-16T04:20:40;8.13;;;3.03;;
10801;SDS011;5453;50.852;7.102;2023-05-16T04:23:12;9.23;;;2.55;;
10801;SDS011;5453;50.852;7.102;2023-05-16T04:25:45;10.88;;;2.63;;
10801;SDS011;5453;50.852;7.102;2023-05-16T04:28:19;7.47;;;2.75;;
10801;SDS011;5453;50.852;7.102;2023-05-16T04:30:53;8.75;;;2.38;;
10801;SDS011;5453;50.852;7.102;2023-05-16T04:33:25;8.48;;;3.17;;
10801;SDS011;5453;50.852;7.102;2023-05-16T04:35:57;5.65;;;2.95;;
10801;SDS011;5453;50.852;7.102;2023-05-16T04:38:29;7.15;;;2.58;;
10801;SDS011;5453;50.852;7.102;2023-05-16T04:41:02;12.38;;;3.05;;
10801;SDS011;5453;50.852;7.102;2023-05-16T04:43:35;9.98;;;2.95;;
10801;SDS011;5453;50.852;7.102;2023-05-16T04:46:08;10.82;;;2.88;;
10801;SDS011;5453;50.852;7.102;2023-05-16T04:48:40;8.23;;;2.90;;
10801;SDS011;5453;50.852;7.102;2023-05-16T04:51:13;8.45;;;2.72;;
10801;SDS011;5453;50.852;7.102;2023-05-16T04:53:45;8.55;;;2.67;;
10801;SDS011;5453;50.852;7.102;2023-05-16T04:56:17;9.00;;;2.78;;
10801;SDS011;5453;50.852;7.102;2023-05-16T04:58:50;10.63;;;2.83;;
10801;SDS011;5453;50.852;7.102;2023-05-16T05:01:23;6.28;;;2.60;;
10801;SDS011;5453;50.852;7.102;2023-05-16T05:03:55;7.75;;;2.63;;
10801;SDS011;5453;50.852;7.102;2023-05-16T05:06:27;7.88;;;2.40;;
10801;SDS011;5453;50.852;7.102;2023-05-16T05:09:00;8.73;;;2.90;;
10801;SDS011;5453;50.852;7.102;2023-05-16T05:11:34;9.95;;;2.47;;
10801;SDS011;5453;50.852;7.102;2023-05-16T05:14:06;7.57;;;2.33;;
10801;SDS011;5453;50.852;7.102;2023-05-16T05:16:40;6.72;;;2.60;;
10801;SDS011;5453;50.852;7.102;2023-05-16T05:19:12;7.40;;;2.33;;
10801;SDS011;5453;50.852;7.102;2023-05-16T05:21:45;10.15;;;2.80;;
10801;SDS011;5453;50.852;7.102;2023-05-16T05:24:17;5.93;;;2.58;;
10801;SDS011;5453;50.852;7.102;2023-05-16T05:26:49;7.60;;;2.22;;
10801;SDS011;5453;50.852;7.102;2023-05-16T05:29:21;7.53;;;2.67;;
10801;SDS011;5453;50.852;7.102;2023-05-16T05:31:55;11.35;;;3.13;;
10801;SDS011;5453;50.852;7.102;2023-05-16T05:34:27;8.38;;;3.05;;
10801;SDS011;5453;50.852;7.102;2023-05-16T05:36:59;6.53;;;2.33;;
10801;SDS011;5453;50.852;7.102;2023-05-16T05:39:31;7.50;;;2.47;;
10801;SDS011;5453;50.852;7.102;2023-05-16T05:42:04;8.25;;;2.88;;
10801;SDS011;5453;50.852;7.102;2023-05-16T05:44:37;10.80;;;3.13;;
10801;SDS011;5453;50.852;7.102;2023-05-16T05:47:10;12.60;;;2.85;;
10801;SDS011;5453;50.852;7.102;2023-05-16T05:49:45;8.10;;;2.88;;
10801;SDS011;5453;50.852;7.102;2023-05-16T05:52:18;7.13;;;2.55;;
10801;SDS011;5453;50.852;7.102;2023-05-16T05:54:51;10.13;;;2.65;;
10801;SDS011;5453;50.852;7.102;2023-05-16T05:57:23;7.43;;;2.50;;
10801;SDS011;5453;50.852;7.102;2023-05-16T05:59:56;7.93;;;2.63;;
10801;SDS011;5453;50.852;7.102;2023-05-16T06:02:29;6.10;;;2.22;;
10801;SDS011;5453;50.852;7.102;2023-05-16T06:05:02;12.48;;;2.80;;
10801;SDS011;5453;50.852;7.102;2023-05-16T06:07:35;10.02;;;2.20;;
10801;SDS011;5453;50.852;7.102;2023-05-16T06:10:07;10.13;;;2.53;;
10801;SDS011;5453;50.852;7.102;2023-05-16T06:12:40;9.85;;;2.35;;
10801;SDS011;5453;50.852;7.102;2023-05-16T06:15:12;4.07;;;2.38;;
10801;SDS011;5453;50.852;7.102;2023-05-16T06:17:45;6.82;;;2.35;;
10801;SDS011;5453;50.852;7.102;2023-05-16T06:20:18;10.95;;;2.67;;
10801;SDS011;5453;50.852;7.102;2023-05-16T06:22:50;8.73;;;2.75;;
10801;SDS011;5453;50.852;7.102;2023-05-16T06:25:22;9.25;;;2.38;;
10801;SDS011;5453;50.852;7.102;2023-05-16T06:27:54;9.13;;;2.42;;
10801;SDS011;5453;50.852;7.102;2023-05-16T06:30:26;7.28;;;2.65;;
10801;SDS011;5453;50.852;7.102;2023-05-16T06:33:00;8.38;;;2.13;;
10801;SDS011;5453;50.852;7.102;2023-05-16T06:35:32;8.43;;;2.17;;
10801;SDS011;5453;50.852;7.102;2023-05-16T06:38:04;6.13;;;1.92;;
10801;SDS011;5453;50.852;7.102;2023-05-16T06:40:36;10.90;;;2.20;;
10801;SDS011;5453;50.852;7.102;2023-05-16T06:43:08;9.18;;;2.15;;
10801;SDS011;5453;50.852;7.102;2023-05-16T06:45:41;7.88;;;2.13;;
10801;SDS011;5453;50.852;7.102;2023-05-16T06:48:14;7.85;;;2.20;;
10801;SDS011;5453;50.852;7.102;2023-05-16T06:50:47;5.30;;;1.90;;
10801;SDS011;5453;50.852;7.102;2023-05-16T06:53:21;6.55;;;1.98;;
10801;SDS011;5453;50.852;7.102;2023-05-16T06:55:53;4.80;;;1.67;;
10801;SDS011;5453;50.852;7.102;2023-05-16T06:58:26;5.60;;;1.73;;
10801;SDS011;5453;50.852;7.102;2023-05-16T07:00:58;9.40;;;2.95;;
10801;SDS011;5453;50.852;7.102;2023-05-16T07:03:31;6.20;;;1.70;;
10801;SDS011;5453;50.852;7.102;2023-05-16T07:06:03;6.90;;;2.00;;
10801;SDS011;5453;50.852;7.102;2023-05-16T07:08:35;10.88;;;2.28;;
10801;SDS011;5453;50.852;7.102;2023-05-16T07:11:07;7.40;;;1.60;;
10801;SDS011;5453;50.852;7.102;2023-05-16T07:13:41;5.45;;;1.70;;
10801;SDS011;5453;50.852;7.102;2023-05-16T07:16:13;4.72;;;1.75;;
10801;SDS011;5453;50.852;7.102;2023-05-16T07:18:46;7.63;;;1.75;;
10801;SDS011;5453;50.852;7.102;2023-05-16T07:21:18;7.03;;;1.55;;
10801;SDS011;5453;50.852;7.102;2023-05-16T07:23:50;5.00;;;1.88;;
10801;SDS011;5453;50.852;7.102;2023-05-16T07:26:22;5.38;;;1.63;;
10801;SDS011;5453;50.852;7.102;2023-05-16T07:28:56;5.15;;;1.50;;
10801;SDS011;5453;50.852;7.102;2023-05-16T07:31:28;6.03;;;1.30;;
10801;SDS011;5453;50.852;7.102;2023-05-16T07:34:01;44.92;;;10.55;;
10801;SDS011;5453;50.852;7.102;2023-05-16T07:36:33;51.28;;;11.98;;
10801;SDS011;5453;50.852;7.102;2023-05-16T07:39:05;79.50;;;17.88;;
10801;SDS011;5453;50.852;7.102;2023-05-16T07:41:37;73.22;;;16.75;;
10801;SDS011;5453;50.852;7.102;2023-05-16T07:44:10;102.60;;;23.45;;
10801;SDS011;5453;50.852;7.102;2023-05-16T07:46:42;120.07;;;28.80;;
10801;SDS011;5453;50.852;7.102;2023-05-16T07:49:15;39.75;;;9.43;;
10801;SDS011;5453;50.852;7.102;2023-05-16T07:51:47;14.15;;;3.45;;
10801;SDS011;5453;50.852;7.102;2023-05-16T07:54:19;8.68;;;1.35;;
10801;SDS011;5453;50.852;7.102;2023-05-16T07:56:52;6.00;;;1.23;;
10801;SDS011;5453;50.852;7.102;2023-05-16T07:59:24;5.55;;;1.30;;
10801;SDS011;5453;50.852;7.102;2023-05-16T08:01:56;6.47;;;1.42;;
10801;SDS011;5453;50.852;7.102;2023-05-16T08:04:29;2.75;;;0.75;;
10801;SDS011;5453;50.852;7.102;2023-05-16T08:07:01;4.45;;;1.02;;
10801;SDS011;5453;50.852;7.102;2023-05-16T08:09:34;7.15;;;1.30;;
10801;SDS011;5453;50.852;7.102;2023-05-16T08:12:06;3.92;;;1.00;;
10801;SDS011;5453;50.852;7.102;2023-05-16T08:14:39;8.38;;;1.70;;
10801;SDS011;5453;50.852;7.102;2023-05-16T08:17:11;15.38;;;3.55;;
10801;SDS011;5453;50.852;7.102;2023-05-16T08:19:45;15.82;;;3.90;;
10801;SDS011;5453;50.852;7.102;2023-05-16T08:22:17;13.02;;;2.55;;
10801;SDS011;5453;50.852;7.102;2023-05-16T08:24:49;10.65;;;2.38;;
10801;SDS011;5453;50.852;7.102;2023-05-16T08:27:21;7.40;;;1.95;;
10801;SDS011;5453;50.852;7.102;2023-05-16T08:29:53;6.97;;;1.98;;
10801;SDS011;5453;50.852;7.102;2023-05-16T08:32:25;6.55;;;1.10;;
10801;SDS011;5453;50.852;7.102;2023-05-16T08:34:58;6.35;;;1.23;;
10801;SDS011;5453;50.852;7.102;2023-05-16T08:37:31;5.78;;;1.30;;
10801;SDS011;5453;50.852;7.102;2023-05-16T08:40:04;4.85;;;1.50;;
10801;SDS011;5453;50.852;7.102;2023-05-16T08:45:10;4.72;;;0.88;;
10801;SDS011;5453;50.852;7.102;2023-05-16T08:47:43;2.45;;;0.80;;
10801;SDS011;5453;50.852;7.102;2023-05-16T08:50:21;6.65;;;1.23;;
10801;SDS011;5453;50.852;7.102;2023-05-16T08:52:55;7.20;;;2.25;;
10801;SDS011;5453;50.852;7.102;2023-05-16T08:55:27;17.95;;;7.35;;
10801;SDS011;5453;50.852;7.102;2023-05-16T08:58:00;10.85;;;4.63;;
10801;SDS011;5453;50.852;7.102;2023-05-16T09:00:32;6.60;;;2.15;;
10801;SDS011;5453;50.852;7.102;2023-05-16T09:03:05;6.43;;;1.85;;
10801;SDS011;5453;50.852;7.102;2023-05-16T09:05:38;5.45;;;1.80;;
10801;SDS011;5453;50.852;7.102;2023-05-16T09:08:11;5.30;;;1.48;;
10801;SDS011;5453;50.852;7.102;2023-05-16T09:10:43;3.17;;;1.10;;
10801;SDS011;5453;50.852;7.102;2023-05-16T09:13:15;4.65;;;1.40;;
10801;SDS011;5453;50.852;7.102;2023-05-16T09:18:45;2.80;;;0.80;;
10801;SDS011;5453;50.852;7.102;2023-05-16T09:21:28;2.80;;;0.95;;
10801;SDS011;5453;50.852;7.102;2023-05-16T09:24:03;3.10;;;0.77;;
10801;SDS011;5453;50.852;7.102;2023-05-16T09:26:36;1.52;;;0.90;;
10801;SDS011;5453;50.852;7.102;2023-05-16T09:29:09;4.15;;;0.80;;
10801;SDS011;5453;50.852;7.102;2023-05-16T09:31:42;2.40;;;0.77;;
10801;SDS011;5453;50.852;7.102;2023-05-16T09:34:14;3.90;;;0.93;;
10801;SDS011;5453;50.852;7.102;2023-05-16T09:36:47;3.83;;;1.05;;
10801;SDS011;5453;50.852;7.102;2023-05-16T09:39:26;1.30;;;0.50;;
10801;SDS011;5453;50.852;7.102;2023-05-16T09:41:58;5.65;;;0.90;;
10801;SDS011;5453;50.852;7.102;2023-05-16T09:44:30;2.50;;;0.77;;
10801;SDS011;5453;50.852;7.102;2023-05-16T09:47:03;1.73;;;0.90;;
10801;SDS011;5453;50.852;7.102;2023-05-16T09:49:35;2.55;;;0.90;;
10801;SDS011;5453;50.852;7.102;2023-05-16T09:52:09;5.35;;;0.98;;
10801;SDS011;5453;50.852;7.102;2023-05-16T09:54:41;3.78;;;0.90;;
10801;SDS011;5453;50.852;7.102;2023-05-16T09:57:16;2.42;;;0.73;;
10801;SDS011;5453;50.852;7.102;2023-05-16T09:59:49;3.88;;;0.70;;
10801;SDS011;5453;50.852;7.102;2023-05-16T10:02:21;5.45;;;1.38;;
10801;SDS011;5453;50.852;7.102;2023-05-16T10:04:53;1.95;;;0.80;;
10801;SDS011;5453;50.852;7.102;2023-05-16T10:07:27;2.40;;;0.82;;
10801;SDS011;5453;50.852;7.102;2023-05-16T10:10:04;3.85;;;0.95;;
10801;SDS011;5453;50.852;7.102;2023-05-16T10:12:38;3.90;;;0.90;;
10801;SDS011;5453;50.852;7.102;2023-05-16T10:15:11;2.33;;;1.25;;
10801;SDS011;5453;50.852;7.102;2023-05-16T10:17:44;3.38;;;1.17;;
10801;SDS011;5453;50.852;7.102;2023-05-16T10:20:21;4.45;;;1.10;;
10801;SDS011;5453;50.852;7.102;2023-05-16T10:22:57;3.00;;;1.13;;
10801;SDS011;5453;50.852;7.102;2023-05-16T10:25:31;2.83;;;1.00;;
10801;SDS011;5453;50.852;7.102;2023-05-16T10:28:07;3.88;;;1.20;;
10801;SDS011;5453;50.852;7.102;2023-05-16T10:30:39;3.50;;;0.98;;
10801;SDS011;5453;50.852;7.102;2023-05-16T10:33:14;5.15;;;0.90;;
10801;SDS011;5453;50.852;7.102;2023-05-16T10:35:48;5.72;;;1.42;;
10801;SDS011;5453;50.852;7.102;2023-05-16T10:38:22;3.53;;;0.93;;
10801;SDS011;5453;50.852;7.102;2023-05-16T10:40:56;3.15;;;1.00;;
10801;SDS011;5453;50.852;7.102;2023-05-16T10:43:28;4.25;;;1.42;;
10801;SDS011;5453;50.852;7.102;2023-05-16T10:46:03;2.95;;;1.20;;
10801;SDS011;5453;50.852;7.102;2023-05-16T10:48:38;2.33;;;1.10;;
10801;SDS011;5453;50.852;7.102;2023-05-16T10:54:09;2.50;;;1.10;;
10801;SDS011;5453;50.852;7.102;2023-05-16T10:56:44;2.83;;;1.17;;
10801;SDS011;5453;50.852;7.102;2023-05-16T10:59:26;1.50;;;1.00;;
10801;SDS011;5453;50.852;7.102;2023-05-16T11:01:58;5.45;;;1.13;;
10801;SDS011;5453;50.852;7.102;2023-05-16T11:04:44;3.13;;;0.82;;
10801;SDS011;5453;50.852;7.102;2023-05-16T11:07:16;2.38;;;0.80;;
10801;SDS011;5453;50.852;7.102;2023-05-16T11:10:02;2.60;;;0.73;;
10801;SDS011;5453;50.852;7.102;2023-05-16T11:15:18;2.40;;;0.80;;
10801;SDS011;5453;50.852;7.102;2023-05-16T11:20:38;3.13;;;0.70;;
10801;SDS011;5453;50.852;7.102;2023-05-16T11:23:23;2.67;;;0.77;;
10801;SDS011;5453;50.852;7.102;2023-05-16T11:25:57;2.40;;;0.93;;
10801;SDS011;5453;50.852;7.102;2023-05-16T11:28:31;0.75;;;0.50;;
10801;SDS011;5453;50.852;7.102;2023-05-16T11:31:03;2.50;;;0.85;;
10801;SDS011;5453;50.852;7.102;2023-05-16T11:33:36;1.92;;;0.75;;
10801;SDS011;5453;50.852;7.102;2023-05-16T11:36:11;2.72;;;0.75;;
10801;SDS011;5453;50.852;7.102;2023-05-16T11:38:43;2.05;;;0.75;;
10801;SDS011;5453;50.852;7.102;2023-05-16T11:41:17;1.65;;;0.80;;
10801;SDS011;5453;50.852;7.102;2023-05-16T11:43:50;1.65;;;0.60;;
10801;SDS011;5453;50.852;7.102;2023-05-16T11:46:22;3.72;;;0.80;;
10801;SDS011;5453;50.852;7.102;2023-05-16T11:48:54;3.85;;;0.85;;
10801;SDS011;5453;50.852;7.102;2023-05-16T11:51:27;24.80;;;10.02;;
10801;SDS011;5453;50.852;7.102;2023-05-16T11:54:00;10.57;;;4.65;;
10801;SDS011;5453;50.852;7.102;2023-05-16T11:56:35;7.65;;;2.50;;
10801;SDS011;5453;50.852;7.102;2023-05-16T11:59:08;7.20;;;3.10;;
10801;SDS011;5453;50.852;7.102;2023-05-16T12:01:41;3.33;;;1.58;;
10801;SDS011;5453;50.852;7.102;2023-05-16T12:04:14;3.80;;;1.42;;
10801;SDS011;5453;50.852;7.102;2023-05-16T12:06:58;2.92;;;1.17;;
10801;SDS011;5453;50.852;7.102;2023-05-16T12:09:31;1.85;;;1.30;;
10801;SDS011;5453;50.852;7.102;2023-05-16T12:12:06;7.63;;;1.50;;
10801;SDS011;5453;50.852;7.102;2023-05-16T12:14:38;2.92;;;1.30;;
10801;SDS011;5453;50.852;7.102;2023-05-16T12:17:11;2.13;;;1.05;;
10801;SDS011;5453;50.852;7.102;2023-05-16T12:19:43;4.60;;;1.00;;
10801;SDS011;5453;50.852;7.102;2023-05-16T12:22:15;5.22;;;1.40;;
10801;SDS011;5453;50.852;7.102;2023-05-16T12:24:47;2.85;;;1.33;;
10801;SDS011;5453;50.852;7.102;2023-05-16T12:27:22;4.88;;;1.40;;
10801;SDS011;5453;50.852;7.102;2023-05-16T12:29:57;4.03;;;1.70;;
10801;SDS011;5453;50.852;7.102;2023-05-16T12:32:29;4.05;;;1.63;;
10801;SDS011;5453;50.852;7.102;2023-05-16T12:35:01;4.38;;;1.33;;
10801;SDS011;5453;50.852;7.102;2023-05-16T12:37:33;5.43;;;1.27;;
10801;SDS011;5453;50.852;7.102;2023-05-16T12:40:05;3.53;;;1.15;;
10801;SDS011;5453;50.852;7.102;2023-05-16T12:42:43;6.57;;;1.98;;
10801;SDS011;5453;50.852;7.102;2023-05-16T12:45:16;15.45;;;6.47;;
10801;SDS011;5453;50.852;7.102;2023-05-16T12:47:48;10.98;;;3.90;;
10801;SDS011;5453;50.852;7.102;2023-05-16T12:50:21;6.75;;;2.85;;
10801;SDS011;5453;50.852;7.102;2023-05-16T12:52:53;5.50;;;2.35;;
10801;SDS011;5453;50.852;7.102;2023-05-16T12:55:29;4.47;;;1.85;;
10801;SDS011;5453;50.852;7.102;2023-05-16T12:58:03;3.83;;;1.70;;
10801;SDS011;5453;50.852;7.102;2023-05-16T13:00:35;3.78;;;1.40;;
10801;SDS011;5453;50.852;7.102;2023-05-16T13:03:08;4.90;;;1.50;;
10801;SDS011;5453;50.852;7.102;2023-05-16T13:05:41;2.03;;;1.38;;
10801;SDS011;5453;50.852;7.102;2023-05-16T13:08:13;2.75;;;1.23;;
10801;SDS011;5453;50.852;7.102;2023-05-16T13:10:45;2.78;;;0.90;;
10801;SDS011;5453;50.852;7.102;2023-05-16T13:13:19;2.75;;;1.05;;
10801;SDS011;5453;50.852;7.102;2023-05-16T13:15:51;1.77;;;0.90;;
10801;SDS011;5453;50.852;7.102;2023-05-16T13:18:23;2.28;;;1.02;;
10801;SDS011;5453;50.852;7.102;2023-05-16T13:20:55;1.65;;;0.90;;
10801;SDS011;5453;50.852;7.102;2023-05-16T13:23:27;3.50;;;0.90;;
10801;SDS011;5453;50.852;7.102;2023-05-16T13:26:00;3.63;;;1.10;;
10801;SDS011;5453;50.852;7.102;2023-05-16T13:28:33;2.88;;;0.90;;
10801;SDS011;5453;50.852;7.102;2023-05-16T13:31:06;3.28;;;1.00;;
10801;SDS011;5453;50.852;7.102;2023-05-16T13:33:39;2.00;;;1.10;;
10801;SDS011;5453;50.852;7.102;2023-05-16T13:36:10;2.03;;;0.88;;
10801;SDS011;5453;50.852;7.102;2023-05-16T13:38:43;2.60;;;0.80;;
10801;SDS011;5453;50.852;7.102;2023-05-16T13:41:15;3.25;;;0.88;;
10801;SDS011;5453;50.852;7.102;2023-05-16T13:43:48;2.95;;;1.35;;
10801;SDS011;5453;50.852;7.102;2023-05-16T13:46:20;3.15;;;1.10;;
10801;SDS011;5453;50.852;7.102;2023-05-16T13:48:52;3.17;;;0.93;;
10801;SDS011;5453;50.852;7.102;2023-05-16T13:51:24;2.97;;;1.02;;
10801;SDS011;5453;50.852;7.102;2023-05-16T13:53:56;3.83;;;1.10;;
10801;SDS011;5453;50.852;7.102;2023-05-16T13:56:28;3.25;;;1.13;;
10801;SDS011;5453;50.852;7.102;2023-05-16T13:59:02;1.98;;;0.80;;
10801;SDS011;5453;50.852;7.102;2023-05-16T14:01:34;1.90;;;0.90;;
10801;SDS011;5453;50.852;7.102;2023-05-16T14:04:06;2.17;;;1.38;;
10801;SDS011;5453;50.852;7.102;2023-05-16T14:06:38;3.60;;;0.77;;
10801;SDS011;5453;50.852;7.102;2023-05-16T14:09:10;2.13;;;1.00;;
10801;SDS011;5453;50.852;7.102;2023-05-16T14:11:44;4.53;;;1.00;;
10801;SDS011;5453;50.852;7.102;2023-05-16T14:14:17;2.05;;;0.70;;
10801;SDS011;5453;50.852;7.102;2023-05-16T14:16:50;6.10;;;1.00;;
10801;SDS011;5453;50.852;7.102;2023-05-16T14:19:22;2.22;;;0.70;;
10801;SDS011;5453;50.852;7.102;2023-05-16T14:21:54;1.00;;;0.60;;
10801;SDS011;5453;50.852;7.102;2023-05-16T14:24:26;2.10;;;0.73;;
10801;SDS011;5453;50.852;7.102;2023-05-16T14:26:58;2.10;;;0.80;;
10801;SDS011;5453;50.852;7.102;2023-05-16T14:29:32;2.72;;;0.60;;
10801;SDS011;5453;50.852;7.102;2023-05-16T14:32:04;0.98;;;0.52;;
10801;SDS011;5453;50.852;7.102;2023-05-16T14:34:37;2.20;;;0.70;;
10801;SDS011;5453;50.852;7.102;2023-05-16T14:37:09;2.97;;;0.80;;
10801;SDS011;5453;50.852;7.102;2023-05-16T14:39:43;3.15;;;0.90;;
10801;SDS011;5453;50.852;7.102;2023-05-16T14:42:16;2.92;;;0.60;;
10801;SDS011;5453;50.852;7.102;2023-05-16T14:44:49;5.30;;;0.55;;
10801;SDS011;5453;50.852;7.102;2023-05-16T14:47:21;1.23;;;0.60;;
10801;SDS011;5453;50.852;7.102;2023-05-16T14:49:54;2.05;;;0.70;;
10801;SDS011;5453;50.852;7.102;2023-05-16T14:52:26;2.33;;;0.75;;
10801;SDS011;5453;50.852;7.102;2023-05-16T14:54:58;3.30;;;0.82;;
10801;SDS011;5453;50.852;7.102;2023-05-16T14:57:30;1.95;;;0.77;;
10801;SDS011;5453;50.852;7.102;2023-05-16T15:00:05;3.42;;;0.90;;
10801;SDS011;5453;50.852;7.102;2023-05-16T15:02:39;0.40;;;0.40;;
10801;SDS011;5453;50.852;7.102;2023-05-16T15:05:11;1.15;;;0.70;;
10801;SDS011;5453;50.852;7.102;2023-05-16T15:07:43;1.88;;;0.70;;
10801;SDS011;5453;50.852;7.102;2023-05-16T15:10:15;2.05;;;0.68;;
10801;SDS011;5453;50.852;7.102;2023-05-16T15:12:47;2.47;;;1.00;;
10801;SDS011;5453;50.852;7.102;2023-05-16T15:15:21;1.45;;;0.85;;
10801;SDS011;5453;50.852;7.102;2023-05-16T15:17:53;1.77;;;0.80;;
10801;SDS011;5453;50.852;7.102;2023-05-16T15:20:47;1.17;;;0.73;;
10801;SDS011;5453;50.852;7.102;2023-05-16T15:23:21;1.73;;;0.63;;
10801;SDS011;5453;50.852;7.102;2023-05-16T15:25:53;1.83;;;0.90;;
10801;SDS011;5453;50.852;7.102;2023-05-16T15:28:25;2.53;;;0.90;;
10801;SDS011;5453;50.852;7.102;2023-05-16T15:30:58;3.40;;;0.80;;
10801;SDS011;5453;50.852;7.102;2023-05-16T15:33:30;1.95;;;0.90;;
10801;SDS011;5453;50.852;7.102;2023-05-16T15:36:02;2.88;;;0.73;;
10801;SDS011;5453;50.852;7.102;2023-05-16T15:38:35;6.18;;;1.02;;
10801;SDS011;5453;50.852;7.102;2023-05-16T15:41:07;3.65;;;0.90;;
10801;SDS011;5453;50.852;7.102;2023-05-16T15:43:39;2.05;;;1.00;;
10801;SDS011;5453;50.852;7.102;2023-05-16T15:46:13;3.55;;;1.00;;
10801;SDS011;5453;50.852;7.102;2023-05-16T15:48:45;1.67;;;0.93;;
10801;SDS011;5453;50.852;7.102;2023-05-16T15:51:17;2.33;;;1.05;;
10801;SDS011;5453;50.852;7.102;2023-05-16T15:53:50;2.75;;;1.23;;
10801;SDS011;5453;50.852;7.102;2023-05-16T15:56:23;3.38;;;0.90;;